Strona główna
METAR-TAF:

METAR-TAF

Lotnisko :

Cachimbo, Pará, Brazylia

Szerokość geograficzna: 09-20S, Długość geograficzna: 054-57W, wysokość: 536 m

Aktualna obserwacja pogody

Raport powstał 2 godziny i 18 minut temu, godzina 00:00 UTC
Wiatr 6 kt od wschodnio-północny wschód
Temperatura 21°C
Wilgotność 60%
Ciśnienie 1016 hPa
Widzialność 10 km lub więcej
Brak chmur poniżej 1500 m i brak chmur cumulonimbus

METAR: SBCC 210000Z 07006KT CAVOK 21/13 Q1016

czas: 23:18 (02:18 UTC)


TAF: brakujący

Obserwacja i prognoza pogody dla ponad 4000 lotnisk (raport METAR i TAF).

Dostępne stacje oznaczono żółtymi i czerwonymi punktami na mapie.

Najedź kursorem aby zobaczyć nazwę stacji.

Kliknij aby zobaczyć obserwacje i prognozy pogody.

Aby zmienić mapę: kliknij na zielony przycisk z czarnym krzyżykiem, aby powiększyć; na zielony przycisk z myślnikiem, aby pomniejszyć; na zielone strzałki, aby przejść do map sąsiednich.


METAR-TAF: